Time;durP1;ratioP1;P1;durP2;ratioP2;P2;SDS_P1;SDS_P2;PMS_P1;PMS_P2;Temp;Humidity;BMP_temperature;BMP_pressure;BME280_temperature;BME280_humidity;BME280_pressure;Samples;Min_cycle;Max_cycle;Signal;HPM_P1;HPM_P2
2022/03/12 00:04:48;;;;;;;2.83;1.60;;;;;;;-148.93;100.00;62180.91;20890532;28;20092;-77
2022/03/12 00:14:50;;;;;;;4.00;2.08;;;;;;;-148.93;100.00;62180.91;20834599;28;20045;-77
2022/03/12 00:24:52;;;;;;;2.05;1.60;;;;;;;-148.93;100.00;62180.91;20891654;28;20091;-77
2022/03/12 00:34:55;;;;;;;2.67;1.40;;;;;;;-148.93;100.00;62180.91;20881884;28;20487;-77
2022/03/12 00:44:58;;;;;;;1.98;1.60;;;;;;;-148.93;100.00;62180.91;20905641;28;20045;-77
2022/03/12 00:55:00;;;;;;;2.72;2.00;;;;;;;-148.93;100.00;62180.91;20886139;28;20036;-77
2022/03/12 01:05:01;;;;;;;2.10;1.65;;;;;;;-148.93;100.00;62180.91;20902769;28;20055;-76
2022/03/12 01:15:05;;;;;;;2.55;1.60;;;;;;;-148.93;100.00;62180.91;20884323;28;20438;-77
2022/03/12 01:25:08;;;;;;;2.08;1.60;;;;;;;-148.93;100.00;62180.91;20901989;28;20429;-77
2022/03/12 01:35:10;;;;;;;4.38;1.48;;;;;;;-148.93;100.00;62180.91;20900451;28;20076;-77
2022/03/12 01:45:13;;;;;;;2.45;1.80;;;;;;;-148.93;100.00;62180.91;20883110;28;20566;-77
2022/03/12 01:55:15;;;;;;;3.08;1.40;;;;;;;-148.93;100.00;62180.91;20865251;28;20372;-77
2022/03/12 02:05:18;;;;;;;2.65;1.75;;;;;;;-148.93;100.00;62180.91;20899219;28;20394;-77
2022/03/12 02:15:22;;;;;;;1.83;1.35;;;;;;;-148.93;100.00;62180.91;20898401;28;20049;-77
2022/03/12 02:25:30;;;;;;;2.55;1.55;;;;;;;-148.93;100.00;62180.91;20898368;28;20393;-77
2022/03/12 02:35:35;;;;;;;2.13;1.60;;;;;;;-148.93;100.00;62180.91;20895163;28;20053;-77
2022/03/12 02:45:37;;;;;;;1.90;1.47;;;;;;;-148.93;100.00;62180.91;20863399;28;20052;-76
2022/03/12 02:55:41;;;;;;;2.58;1.63;;;;;;;-148.93;100.00;62180.91;20911166;28;20033;-77
2022/03/12 03:05:45;;;;;;;2.13;1.60;;;;;;;-148.93;100.00;62180.91;20907541;28;20040;-77
2022/03/12 03:15:49;;;;;;;3.35;1.52;;;;;;;-148.93;100.00;62180.91;20950561;28;20406;-77
2022/03/12 03:25:51;;;;;;;2.80;1.80;;;;;;;-148.93;100.00;62180.91;20910824;28;20060;-77
2022/03/12 03:35:53;;;;;;;1.58;1.48;;;;;;;-148.93;100.00;62180.91;20947906;28;20053;-77
2022/03/12 03:45:57;;;;;;;1.95;1.52;;;;;;;-148.93;100.00;62180.91;20932119;28;20044;-77
2022/03/12 03:56:04;;;;;;;2.70;1.63;;;;;;;-148.93;100.00;62180.91;20933137;28;20414;-76
2022/03/12 04:06:06;;;;;;;3.78;1.60;;;;;;;-148.93;100.00;62180.91;20959944;28;20048;-77
2022/03/12 04:16:09;;;;;;;2.63;1.77;;;;;;;-148.93;100.00;62180.91;20928605;28;20810;-77
2022/03/12 04:26:11;;;;;;;5.97;1.90;;;;;;;-148.93;100.00;62180.91;20943382;28;20417;-77
2022/03/12 04:36:13;;;;;;;2.45;1.55;;;;;;;-148.93;100.00;62180.91;20931339;28;20056;-77
2022/03/12 04:46:15;;;;;;;1.95;1.60;;;;;;;-148.93;100.00;62180.91;20946536;28;20044;-77
2022/03/12 04:56:17;;;;;;;2.50;1.40;;;;;;;-148.93;100.00;62180.91;20907203;28;20616;-77
2022/03/12 05:06:20;;;;;;;1.75;1.40;;;;;;;-148.93;100.00;62180.91;20944108;28;20592;-77
2022/03/12 05:16:22;;;;;;;3.88;1.95;;;;;;;-148.93;100.00;62180.91;20951891;28;20044;-77
2022/03/12 05:26:24;;;;;;;2.65;1.60;;;;;;;-148.93;100.00;62180.91;20933771;28;20064;-76
2022/03/12 05:36:26;;;;;;;3.20;1.70;;;;;;;-148.93;100.00;62180.91;20932284;28;20090;-76
2022/03/12 05:46:27;;;;;;;2.55;1.50;;;;;;;-148.93;100.00;62180.91;20899337;28;20047;-76
2022/03/12 05:56:30;;;;;;;2.22;1.27;;;;;;;-148.93;100.00;62180.91;20952590;28;20101;-76
2022/03/12 06:06:32;;;;;;;5.03;1.73;;;;;;;-148.93;100.00;62180.91;20857215;28;1114331;-76
2022/03/12 06:16:34;;;;;;;2.35;1.70;;;;;;;-148.93;100.00;62180.91;20952199;28;20052;-78
2022/03/12 06:26:39;;;;;;;2.13;1.63;;;;;;;-148.93;100.00;62180.91;20977155;28;20106;-77
2022/03/12 06:36:44;;;;;;;1.63;1.40;;;;;;;-148.93;100.00;62180.91;21005053;28;20040;-78
2022/03/12 06:46:49;;;;;;;1.27;0.97;;;;;;;-148.93;100.00;62180.91;20986376;28;20071;-78
2022/03/12 06:56:51;;;;;;;1.90;1.43;;;;;;;-148.93;100.00;62180.91;21003065;28;20051;-76
2022/03/12 07:06:53;;;;;;;1.80;1.30;;;;;;;-148.93;100.00;62180.91;20984195;28;20602;-78
2022/03/12 07:16:55;;;;;;;3.22;1.50;;;;;;;-148.93;100.00;62180.91;21001377;28;20596;-78
2022/03/12 07:26:57;;;;;;;2.00;1.38;;;;;;;-148.93;100.00;62180.91;20983363;28;20410;-78
2022/03/12 07:36:59;;;;;;;2.03;1.50;;;;;;;-148.93;100.00;62180.91;20982177;28;20048;-78
2022/03/12 07:47:00;;;;;;;2.75;1.20;;;;;;;-148.93;100.00;62180.91;20981660;28;20529;-78
2022/03/12 07:57:03;;;;;;;2.28;1.42;;;;;;;-148.93;100.00;62180.91;20998379;28;20044;-78
2022/03/12 08:07:05;;;;;;;1.90;1.50;;;;;;;-148.93;100.00;62180.91;20968952;28;20052;-78
2022/03/12 08:17:06;;;;;;;2.45;1.63;;;;;;;-148.93;100.00;62180.91;20941762;28;20040;-78
2022/03/12 08:27:09;;;;;;;2.00;1.45;;;;;;;-148.93;100.00;62180.91;20961691;28;20055;-78
2022/03/12 08:37:12;;;;;;;2.45;1.67;;;;;;;-148.93;100.00;62180.91;20995029;28;20056;-78
2022/03/12 08:47:14;;;;;;;3.72;2.30;;;;;;;-148.93;100.00;62180.91;20976666;28;20036;-78
2022/03/12 08:57:16;;;;;;;1.98;1.58;;;;;;;-148.93;100.00;62180.91;20992247;28;20045;-78
2022/03/12 09:07:18;;;;;;;1.52;1.38;;;;;;;-148.93;100.00;62180.91;20992628;28;20057;-78
2022/03/12 09:17:21;;;;;;;3.78;1.58;;;;;;;-148.93;100.00;62180.91;20974469;28;20048;-78
2022/03/12 09:27:23;;;;;;;3.00;1.60;;;;;;;-148.93;100.00;62180.91;20991325;28;20494;-78
2022/03/12 09:37:25;;;;;;;2.33;1.52;;;;;;;-148.93;100.00;62180.91;20972882;28;20048;-78
2022/03/12 09:47:27;;;;;;;2.25;1.67;;;;;;;-148.93;100.00;62180.91;20972494;28;20045;-78
2022/03/12 09:57:30;;;;;;;3.20;1.70;;;;;;;-148.93;100.00;62180.91;20973132;28;20048;-78
2022/03/12 10:07:31;;;;;;;2.38;1.70;;;;;;;-148.93;100.00;62180.91;20988892;28;20053;-79
2022/03/12 10:17:33;;;;;;;1.90;1.55;;;;;;;-148.93;100.00;62180.91;20970829;28;20059;-79
2022/03/12 10:27:35;;;;;;;3.92;1.60;;;;;;;-148.93;100.00;62180.91;20988126;28;20135;-80
2022/03/12 10:37:38;;;;;;;2.20;1.40;;;;;;;-148.93;100.00;62180.91;20987839;28;20135;-76
2022/03/12 10:47:45;;;;;;;3.65;1.40;;;;;;;-148.93;100.00;62180.91;20969587;28;20052;-78
2022/03/12 10:57:58;;;;;;;2.92;1.67;;;;;;;-148.93;100.00;62180.91;20902179;28;20040;-78
2022/03/12 11:08:17;;;;;;;2.22;1.80;;;;;;;-148.93;100.00;62180.91;20902490;28;20056;-78
2022/03/12 11:18:19;;;;;;;2.47;1.90;;;;;;;-148.93;100.00;62180.91;20935628;28;20055;-78
2022/03/12 11:28:21;;;;;;;2.30;1.80;;;;;;;-148.93;100.00;62180.91;20953508;28;20047;-77
2022/03/12 11:38:23;;;;;;;2.60;1.50;;;;;;;-148.93;100.00;62180.91;20999733;28;20048;-78
2022/03/12 11:48:27;;;;;;;2.85;1.90;;;;;;;-148.93;100.00;62180.91;20956410;28;20040;-77
2022/03/12 11:58:29;;;;;;;2.63;1.60;;;;;;;-148.93;100.00;62180.91;20983476;28;20044;-77
2022/03/12 12:08:31;;;;;;;1.90;1.50;;;;;;;-148.93;100.00;62180.91;20997657;28;20394;-77
2022/03/12 12:18:32;;;;;;;2.20;1.60;;;;;;;-148.93;100.00;62180.91;20997130;28;20051;-77
2022/03/12 12:28:49;;;;;;;2.25;1.60;;;;;;;-148.93;100.00;62180.91;20989092;28;20040;-77
2022/03/12 12:39:08;;;;;;;3.05;2.10;;;;;;;-148.93;100.00;62180.91;20941619;28;20168;-78
2022/03/12 12:49:14;;;;;;;3.72;1.80;;;;;;;-148.93;100.00;62180.91;20939084;28;20155;-78
2022/03/12 12:59:16;;;;;;;2.10;1.40;;;;;;;-148.93;100.00;62180.91;20993552;28;20044;-78
2022/03/12 13:09:40;;;;;;;4.28;1.70;;;;;;;-148.93;100.00;62180.91;20992940;28;20041;-78
2022/03/12 13:19:42;;;;;;;3.05;1.55;;;;;;;-148.93;100.00;62180.91;20992570;28;20044;-78
2022/03/12 13:29:45;;;;;;;2.42;1.60;;;;;;;-148.93;100.00;62180.91;20991226;28;20505;-78
2022/03/12 13:39:47;;;;;;;2.80;1.40;;;;;;;-148.93;100.00;62180.91;20972289;28;20276;-78
2022/03/12 13:49:51;;;;;;;2.33;1.60;;;;;;;-148.93;100.00;62180.91;20990057;28;20451;-78
2022/03/12 14:00:10;;;;;;;2.33;1.88;;;;;;;-148.93;100.00;62180.91;20981960;28;20045;-78
2022/03/12 14:10:15;;;;;;;2.50;1.70;;;;;;;-148.93;100.00;62180.91;20989283;28;20698;-78
2022/03/12 14:20:18;;;;;;;1.80;1.45;;;;;;;-148.93;100.00;62180.91;20988169;28;20044;-78
2022/03/12 14:30:20;;;;;;;1.83;1.50;;;;;;;-148.93;100.00;62180.91;20988271;28;20494;-78
2022/03/12 14:40:22;;;;;;;2.13;1.45;;;;;;;-148.93;100.00;62180.91;20987970;28;20057;-78
2022/03/12 14:50:24;;;;;;;3.38;1.40;;;;;;;-148.93;100.00;62180.91;20981586;28;20044;-79
2022/03/12 15:00:27;;;;;;;3.10;1.23;;;;;;;-148.93;100.00;62180.91;20984853;28;20116;-78
2022/03/12 15:10:30;;;;;;;1.88;1.50;;;;;;;-148.93;100.00;62180.91;21002420;28;20490;-78
2022/03/12 15:20:34;;;;;;;1.30;1.20;;;;;;;-148.93;100.00;62180.91;20973469;28;20127;-78
2022/03/12 15:30:37;;;;;;;1.52;1.30;;;;;;;-148.93;100.00;62180.91;21000496;28;20048;-78
2022/03/12 15:40:42;;;;;;;1.85;1.30;;;;;;;-148.93;100.00;62180.91;21000415;28;20135;-78
2022/03/12 15:50:44;;;;;;;2.38;1.48;;;;;;;-148.93;100.00;62180.91;20958198;28;20132;-81
2022/03/12 16:00:46;;;;;;;2.03;1.30;;;;;;;-148.93;100.00;62180.91;20923830;28;20060;-77
2022/03/12 16:10:48;;;;;;;2.10;1.27;;;;;;;-148.93;100.00;62180.91;20918509;28;20076;-78
2022/03/12 16:20:56;;;;;;;2.08;1.25;;;;;;;-148.93;100.00;62180.91;20912042;28;20044;-78
2022/03/12 16:30:58;;;;;;;2.65;1.27;;;;;;;-148.93;100.00;62180.91;20896519;28;20053;-78
2022/03/12 16:41:01;;;;;;;1.90;1.30;;;;;;;-148.93;100.00;62180.91;20912842;28;20045;-78
2022/03/12 16:51:04;;;;;;;2.28;1.40;;;;;;;-148.93;100.00;62180.91;20911773;28;20052;-78
2022/03/12 17:01:06;;;;;;;2.17;1.13;;;;;;;-148.93;100.00;62180.91;20893144;28;20052;-78
2022/03/12 17:11:12;;;;;;;1.77;1.30;;;;;;;-148.93;100.00;62180.91;20890178;28;20048;-77
2022/03/12 17:21:15;;;;;;;2.53;1.50;;;;;;;-148.93;100.00;62180.91;20909381;28;20072;-78
2022/03/12 17:31:17;;;;;;;1.80;1.20;;;;;;;-148.93;100.00;62180.91;20908514;28;20483;-78
2022/03/12 17:41:21;;;;;;;1.30;1.20;;;;;;;-148.93;100.00;62180.91;20874125;28;20482;-78
2022/03/12 17:51:24;;;;;;;1.40;1.10;;;;;;;-148.93;100.00;62180.91;20943316;28;20051;-78
2022/03/12 18:01:28;;;;;;;1.77;1.20;;;;;;;-148.93;100.00;62180.91;20952060;28;20052;-79
2022/03/12 18:11:32;;;;;;;2.90;1.45;;;;;;;-148.93;100.00;62180.91;20913865;28;20049;-83
2022/03/12 18:21:36;;;;;;;1.83;1.40;;;;;;;-148.93;100.00;62180.91;20955735;28;20485;-77
2022/03/12 18:31:38;;;;;;;2.25;1.60;;;;;;;-148.93;100.00;62180.91;20966599;28;20509;-77
2022/03/12 18:41:41;;;;;;;1.40;1.25;;;;;;;-148.93;100.00;62180.91;20949081;28;20048;-78
2022/03/12 18:51:47;;;;;;;2.53;1.40;;;;;;;-148.93;100.00;62180.91;20910483;28;20045;-78
2022/03/12 19:01:48;;;;;;;1.50;1.35;;;;;;;-148.93;100.00;62180.91;20921074;28;20051;-78
2022/03/12 19:11:52;;;;;;;2.92;1.88;;;;;;;-148.93;100.00;62180.91;20906497;28;20053;-77
2022/03/12 19:21:55;;;;;;;1.73;1.40;;;;;;;-148.93;100.00;62180.91;20937265;28;20153;-78
2022/03/12 19:31:56;;;;;;;1.83;1.40;;;;;;;-148.93;100.00;62180.91;20888007;28;20402;-78
2022/03/12 19:42:01;;;;;;;1.83;1.35;;;;;;;-148.93;100.00;62180.91;20917626;28;20049;-77
2022/03/12 19:52:04;;;;;;;1.67;1.52;;;;;;;-148.93;100.00;62180.91;20948402;28;20410;-78
2022/03/12 20:02:07;;;;;;;1.80;1.58;;;;;;;-148.93;100.00;62180.91;20933690;28;20037;-78
2022/03/12 20:12:15;;;;;;;2.05;1.50;;;;;;;-148.93;100.00;62180.91;20927784;28;20495;-78
2022/03/12 20:22:18;;;;;;;2.22;1.75;;;;;;;-148.93;100.00;62180.91;20933218;28;20033;-78
2022/03/12 20:32:20;;;;;;;1.98;1.65;;;;;;;-148.93;100.00;62180.91;20926297;28;20044;-78
2022/03/12 20:42:23;;;;;;;2.08;1.42;;;;;;;-148.93;100.00;62180.91;20922664;28;20051;-78
2022/03/12 20:52:24;;;;;;;2.75;1.83;;;;;;;-148.93;100.00;62180.91;20945299;28;20056;-77
2022/03/12 21:02:28;;;;;;;1.73;1.50;;;;;;;-148.93;100.00;62180.91;20876299;28;20376;-78
2022/03/12 21:12:29;;;;;;;1.90;1.50;;;;;;;-148.93;100.00;62180.91;20900639;28;20118;-77
2022/03/12 21:22:31;;;;;;;2.20;1.98;;;;;;;-148.93;100.00;62180.91;20898836;28;20049;-77
2022/03/12 21:32:35;;;;;;;2.15;1.40;;;;;;;-148.93;100.00;62180.91;20904031;28;20048;-77
2022/03/12 21:42:38;;;;;;;1.65;1.45;;;;;;;-148.93;100.00;62180.91;20901909;28;20040;-78
2022/03/12 21:52:40;;;;;;;2.55;1.58;;;;;;;-148.93;100.00;62180.91;20901392;28;20041;-78
2022/03/12 22:02:42;;;;;;;1.90;1.50;;;;;;;-148.93;100.00;62180.91;20901657;28;20425;-78
2022/03/12 22:12:44;;;;;;;1.92;1.55;;;;;;;-148.93;100.00;62180.91;20900921;28;20127;-77
2022/03/12 22:22:53;;;;;;;2.72;1.95;;;;;;;-148.93;100.00;62180.91;20882365;28;20041;-77
2022/03/12 22:32:56;;;;;;;1.52;1.42;;;;;;;-148.93;100.00;62180.91;20882326;28;20059;-78
2022/03/12 22:43:00;;;;;;;2.40;1.88;;;;;;;-148.93;100.00;62180.91;20881250;28;20059;-78
2022/03/12 22:53:05;;;;;;;1.95;1.75;;;;;;;-148.93;100.00;62180.91;20898137;28;20110;-78
2022/03/12 23:03:19;;;;;;;2.00;1.73;;;;;;;-148.93;100.00;62180.91;20880952;28;20053;-78
2022/03/12 23:13:21;;;;;;;2.47;1.90;;;;;;;-148.93;100.00;62180.91;20916456;28;20559;-78
2022/03/12 23:23:23;;;;;;;1.98;1.63;;;;;;;-148.93;100.00;62180.91;20978446;28;20736;-78
2022/03/12 23:33:25;;;;;;;1.60;1.50;;;;;;;-148.93;100.00;62180.91;20948758;28;20048;-78
2022/03/12 23:43:29;;;;;;;2.13;1.63;;;;;;;-148.93;100.00;62180.91;20964107;28;20041;-78
2022/03/12 23:53:31;;;;;;;2.10;1.73;;;;;;;-148.93;100.00;62180.91;20959259;28;20049;-78
